sensor_id;sensor_type;location;lat;lon;timestamp;pressure;altitude;pressure_sealevel;temperature;humidity
6194;BME280;3130;41.564;23.280;2023-03-18T00:00:13;99288.38;;;7.87;60.93
6194;BME280;3130;41.564;23.280;2023-03-18T00:02:42;99278.28;;;7.84;61.58
6194;BME280;3130;41.564;23.280;2023-03-18T00:05:09;99285.69;;;7.90;60.97
6194;BME280;3130;41.564;23.280;2023-03-18T00:07:37;99285.81;;;7.87;60.19
6194;BME280;3130;41.564;23.280;2023-03-18T00:10:08;99281.28;;;7.93;61.02
6194;BME280;3130;41.564;23.280;2023-03-18T00:12:36;99271.38;;;7.86;60.88
6194;BME280;3130;41.564;23.280;2023-03-18T00:15:05;99271.81;;;7.77;61.50
6194;BME280;3130;41.564;23.280;2023-03-18T00:17:32;99282.78;;;7.59;63.96
6194;BME280;3130;41.564;23.280;2023-03-18T00:19:59;99249.25;;;7.28;65.24
6194;BME280;3130;41.564;23.280;2023-03-18T00:22:31;99261.84;;;7.31;65.67
6194;BME280;3130;41.564;23.280;2023-03-18T00:24:58;99169.94;;;6.74;66.34
6194;BME280;3130;41.564;23.280;2023-03-18T00:27:27;99277.88;;;7.34;67.96
6194;BME280;3130;41.564;23.280;2023-03-18T00:29:55;99266.03;;;7.12;69.94
6194;BME280;3130;41.564;23.280;2023-03-18T00:32:25;99273.69;;;7.12;70.56
6194;BME280;3130;41.564;23.280;2023-03-18T00:34:52;99174.25;;;6.51;70.63
6194;BME280;3130;41.564;23.280;2023-03-18T00:37:20;99254.00;;;6.96;70.94
6194;BME280;3130;41.564;23.280;2023-03-18T00:39:56;99271.88;;;6.94;71.28
6194;BME280;3130;41.564;23.280;2023-03-18T00:42:23;99264.97;;;6.97;71.10
6194;BME280;3130;41.564;23.280;2023-03-18T00:44:52;99258.66;;;7.06;69.49
6194;BME280;3130;41.564;23.280;2023-03-18T00:47:19;99179.97;;;6.57;69.01
6194;BME280;3130;41.564;23.280;2023-03-18T00:49:46;99259.13;;;7.15;69.75
6194;BME280;3130;41.564;23.280;2023-03-18T00:52:13;99240.16;;;7.01;68.87
6194;BME280;3130;41.564;23.280;2023-03-18T00:54:41;99259.00;;;7.18;69.07
6194;BME280;3130;41.564;23.280;2023-03-18T00:57:08;99255.50;;;7.21;68.49
6194;BME280;3130;41.564;23.280;2023-03-18T00:59:35;99141.50;;;6.63;68.25
6194;BME280;3130;41.564;23.280;2023-03-18T01:02:04;99258.38;;;7.33;68.71
6194;BME280;3130;41.564;23.280;2023-03-18T01:04:31;99250.16;;;7.27;68.11
6194;BME280;3130;41.564;23.280;2023-03-18T01:06:58;99223.91;;;7.03;68.03
6194;BME280;3130;41.564;23.280;2023-03-18T01:09:26;99246.81;;;7.05;68.30
6194;BME280;3130;41.564;23.280;2023-03-18T01:11:53;99172.94;;;6.62;68.40
6194;BME280;3130;41.564;23.280;2023-03-18T01:14:20;99230.16;;;6.97;67.99
6194;BME280;3130;41.564;23.280;2023-03-18T01:16:47;99244.50;;;7.19;68.20
6194;BME280;3130;41.564;23.280;2023-03-18T01:19:16;99238.22;;;7.27;66.83
6194;BME280;3130;41.564;23.280;2023-03-18T01:21:43;99241.59;;;7.28;66.31
6194;BME280;3130;41.564;23.280;2023-03-18T01:24:10;99224.13;;;7.19;65.37
6194;BME280;3130;41.564;23.280;2023-03-18T01:26:37;99223.22;;;7.20;64.74
6194;BME280;3130;41.564;23.280;2023-03-18T01:29:04;99241.41;;;7.32;65.15
6194;BME280;3130;41.564;23.280;2023-03-18T01:31:33;99241.66;;;7.26;65.38
6194;BME280;3130;41.564;23.280;2023-03-18T01:34:00;99236.06;;;7.18;65.31
6194;BME280;3130;41.564;23.280;2023-03-18T01:36:29;99242.09;;;7.16;65.77
6194;BME280;3130;41.564;23.280;2023-03-18T01:38:56;99245.66;;;7.12;66.98
6194;BME280;3130;41.564;23.280;2023-03-18T01:41:23;99239.19;;;7.03;67.78
6194;BME280;3130;41.564;23.280;2023-03-18T01:43:51;99115.63;;;6.11;68.57
6194;BME280;3130;41.564;23.280;2023-03-18T01:46:32;99216.06;;;6.47;69.88
6194;BME280;3130;41.564;23.280;2023-03-18T01:49:02;99157.63;;;5.99;71.17
6194;BME280;3130;41.564;23.280;2023-03-18T01:51:32;99232.31;;;6.21;72.50
6194;BME280;3130;41.564;23.280;2023-03-18T01:54:02;99187.19;;;5.81;73.70
6194;BME280;3130;41.564;23.280;2023-03-18T01:56:31;99227.31;;;5.73;74.87
6194;BME280;3130;41.564;23.280;2023-03-18T01:59:00;99220.69;;;5.69;74.86
6194;BME280;3130;41.564;23.280;2023-03-18T02:01:31;99127.88;;;4.86;74.97
6194;BME280;3130;41.564;23.280;2023-03-18T02:04:00;99194.28;;;5.25;75.19
6194;BME280;3130;41.564;23.280;2023-03-18T02:06:28;99142.69;;;4.73;75.60
6194;BME280;3130;41.564;23.280;2023-03-18T02:08:57;99189.56;;;4.89;75.77
6194;BME280;3130;41.564;23.280;2023-03-18T02:11:25;99230.50;;;5.06;75.96
6194;BME280;3130;41.564;23.280;2023-03-18T02:13:53;99232.41;;;4.99;76.96
6194;BME280;3130;41.564;23.280;2023-03-18T02:16:22;99147.69;;;4.50;77.82
6194;BME280;3130;41.564;23.280;2023-03-18T02:18:52;99203.81;;;4.69;78.66
6194;BME280;3130;41.564;23.280;2023-03-18T02:21:43;99195.03;;;4.51;79.38
6194;BME280;3130;41.564;23.280;2023-03-18T02:24:22;99207.25;;;4.40;80.29
6194;BME280;3130;41.564;23.280;2023-03-18T02:26:55;99223.75;;;4.53;80.84
6194;BME280;3130;41.564;23.280;2023-03-18T02:29:26;99227.06;;;4.57;80.29
6194;BME280;3130;41.564;23.280;2023-03-18T02:31:56;99193.03;;;4.35;80.03
6194;BME280;3130;41.564;23.280;2023-03-18T02:34:27;99230.16;;;4.65;79.54
6194;BME280;3130;41.564;23.280;2023-03-18T02:36:55;99129.41;;;4.13;79.86
6194;BME280;3130;41.564;23.280;2023-03-18T02:39:23;99197.34;;;4.59;79.00
6194;BME280;3130;41.564;23.280;2023-03-18T02:41:50;99224.06;;;4.70;79.27
6194;BME280;3130;41.564;23.280;2023-03-18T02:44:18;99237.22;;;4.57;79.92
6194;BME280;3130;41.564;23.280;2023-03-18T02:46:51;99230.88;;;4.42;79.93
6194;BME280;3130;41.564;23.280;2023-03-18T02:49:20;99232.78;;;4.36;80.63
6194;BME280;3130;41.564;23.280;2023-03-18T02:51:49;99245.59;;;4.31;80.44
6194;BME280;3130;41.564;23.280;2023-03-18T02:54:19;99246.13;;;4.41;80.09
6194;BME280;3130;41.564;23.280;2023-03-18T02:56:47;99219.75;;;4.19;80.25
6194;BME280;3130;41.564;23.280;2023-03-18T02:59:14;99208.19;;;4.10;79.82
6194;BME280;3130;41.564;23.280;2023-03-18T03:01:43;99218.59;;;4.01;80.43
6194;BME280;3130;41.564;23.280;2023-03-18T03:04:13;99232.34;;;3.93;81.04
6194;BME280;3130;41.564;23.280;2023-03-18T03:06:41;99243.88;;;4.04;80.97
6194;BME280;3130;41.564;23.280;2023-03-18T03:09:09;99148.25;;;3.50;80.79
6194;BME280;3130;41.564;23.280;2023-03-18T03:11:38;99159.00;;;3.58;81.49
6194;BME280;3130;41.564;23.280;2023-03-18T03:14:05;99206.25;;;3.90;81.45
6194;BME280;3130;41.564;23.280;2023-03-18T03:16:33;99238.50;;;4.13;81.50
6194;BME280;3130;41.564;23.280;2023-03-18T03:19:00;99231.44;;;3.95;81.59
6194;BME280;3130;41.564;23.280;2023-03-18T03:21:30;99220.78;;;3.85;81.85
6194;BME280;3130;41.564;23.280;2023-03-18T03:23:58;99233.63;;;3.79;82.80
6194;BME280;3130;41.564;23.280;2023-03-18T03:26:25;99240.56;;;3.72;82.99
6194;BME280;3130;41.564;23.280;2023-03-18T03:28:52;99203.88;;;3.55;83.20
6194;BME280;3130;41.564;23.280;2023-03-18T03:31:20;99249.47;;;3.87;83.44
6194;BME280;3130;41.564;23.280;2023-03-18T03:33:48;99243.50;;;3.88;83.16
6194;BME280;3130;41.564;23.280;2023-03-18T03:36:16;99238.34;;;3.91;83.06
6194;BME280;3130;41.564;23.280;2023-03-18T03:38:45;99233.63;;;3.79;83.28
6194;BME280;3130;41.564;23.280;2023-03-18T03:41:12;99238.22;;;3.65;83.84
6194;BME280;3130;41.564;23.280;2023-03-18T03:43:40;99204.78;;;3.52;83.89
6194;BME280;3130;41.564;23.280;2023-03-18T03:46:08;99233.97;;;3.67;84.06
6194;BME280;3130;41.564;23.280;2023-03-18T03:48:36;99198.47;;;3.36;84.48
6194;BME280;3130;41.564;23.280;2023-03-18T03:51:04;99231.03;;;3.51;84.70
6194;BME280;3130;41.564;23.280;2023-03-18T03:53:32;99237.19;;;3.41;85.25
6194;BME280;3130;41.564;23.280;2023-03-18T03:56:02;99239.00;;;3.36;86.29
6194;BME280;3130;41.564;23.280;2023-03-18T03:58:29;99239.88;;;3.35;85.53
6194;BME280;3130;41.564;23.280;2023-03-18T04:00:56;99240.72;;;3.36;85.63
6194;BME280;3130;41.564;23.280;2023-03-18T04:03:24;99242.31;;;3.40;85.64
6194;BME280;3130;41.564;23.280;2023-03-18T04:05:51;99244.56;;;3.50;85.41
6194;BME280;3130;41.564;23.280;2023-03-18T04:08:19;99225.25;;;3.46;86.12
6194;BME280;3130;41.564;23.280;2023-03-18T04:10:46;99141.16;;;3.00;85.00
6194;BME280;3130;41.564;23.280;2023-03-18T04:13:15;99114.84;;;2.76;84.84
6194;BME280;3130;41.564;23.280;2023-03-18T04:15:42;99249.50;;;3.55;84.85
6194;BME280;3130;41.564;23.280;2023-03-18T04:18:09;99248.94;;;3.44;85.31
6194;BME280;3130;41.564;23.280;2023-03-18T04:20:38;99248.34;;;3.34;85.71
6194;BME280;3130;41.564;23.280;2023-03-18T04:23:05;99155.28;;;2.79;86.18
6194;BME280;3130;41.564;23.280;2023-03-18T04:25:32;99250.13;;;3.31;85.97
6194;BME280;3130;41.564;23.280;2023-03-18T04:28:00;99250.31;;;3.25;86.17
6194;BME280;3130;41.564;23.280;2023-03-18T04:30:28;99250.88;;;3.34;86.50
6194;BME280;3130;41.564;23.280;2023-03-18T04:32:57;99250.00;;;3.35;86.08
6194;BME280;3130;41.564;23.280;2023-03-18T04:35:27;99247.41;;;3.38;85.81
6194;BME280;3130;41.564;23.280;2023-03-18T04:37:54;99229.16;;;3.26;86.18
6194;BME280;3130;41.564;23.280;2023-03-18T04:40:21;99204.47;;;3.00;86.47
6194;BME280;3130;41.564;23.280;2023-03-18T04:42:49;99256.00;;;3.33;86.12
6194;BME280;3130;41.564;23.280;2023-03-18T04:45:16;99249.72;;;3.15;86.42
6194;BME280;3130;41.564;23.280;2023-03-18T04:47:45;99205.91;;;2.79;87.25
6194;BME280;3130;41.564;23.280;2023-03-18T04:50:14;99253.41;;;3.02;87.38
6194;BME280;3130;41.564;23.280;2023-03-18T04:52:42;99252.69;;;2.97;87.93
6194;BME280;3130;41.564;23.280;2023-03-18T04:55:11;99251.97;;;2.93;87.87
6194;BME280;3130;41.564;23.280;2023-03-18T04:57:41;99238.69;;;2.83;88.10
6194;BME280;3130;41.564;23.280;2023-03-18T05:00:11;99153.97;;;2.29;88.03
6194;BME280;3130;41.564;23.280;2023-03-18T05:02:41;99261.25;;;2.94;88.41
6194;BME280;3130;41.564;23.280;2023-03-18T05:05:11;99239.50;;;2.85;88.60
6194;BME280;3130;41.564;23.280;2023-03-18T05:07:38;99257.84;;;2.93;88.34
6194;BME280;3130;41.564;23.280;2023-03-18T05:10:07;99262.78;;;2.99;88.35
6194;BME280;3130;41.564;23.280;2023-03-18T05:12:35;99261.53;;;3.15;87.85
6194;BME280;3130;41.564;23.280;2023-03-18T05:15:03;99256.00;;;3.33;87.75
6194;BME280;3130;41.564;23.280;2023-03-18T05:17:30;99202.47;;;3.14;87.21
6194;BME280;3130;41.564;23.280;2023-03-18T05:19:57;99267.06;;;3.62;86.31
6194;BME280;3130;41.564;23.280;2023-03-18T05:22:26;99268.00;;;3.58;86.12
6194;BME280;3130;41.564;23.280;2023-03-18T05:24:53;99210.16;;;3.10;85.74
6194;BME280;3130;41.564;23.280;2023-03-18T05:27:20;99252.66;;;3.32;85.99
6194;BME280;3130;41.564;23.280;2023-03-18T05:29:48;99233.53;;;3.21;86.72
6194;BME280;3130;41.564;23.280;2023-03-18T05:32:15;99273.41;;;3.45;86.18
6194;BME280;3130;41.564;23.280;2023-03-18T05:34:42;99269.28;;;3.42;86.02
6194;BME280;3130;41.564;23.280;2023-03-18T05:37:11;99197.69;;;3.02;86.18
6194;BME280;3130;41.564;23.280;2023-03-18T05:39:41;99280.00;;;3.52;85.62
6194;BME280;3130;41.564;23.280;2023-03-18T05:42:08;99275.69;;;3.55;85.52
6194;BME280;3130;41.564;23.280;2023-03-18T05:44:36;99276.31;;;3.63;85.57
6194;BME280;3130;41.564;23.280;2023-03-18T05:47:03;99257.13;;;3.53;85.20
6194;BME280;3130;41.564;23.280;2023-03-18T05:49:31;99286.88;;;3.79;85.18
6194;BME280;3130;41.564;23.280;2023-03-18T05:51:58;99260.06;;;3.70;84.45
6194;BME280;3130;41.564;23.280;2023-03-18T05:54:25;99220.97;;;3.48;84.54
6194;BME280;3130;41.564;23.280;2023-03-18T05:56:55;99269.00;;;3.83;84.32
6194;BME280;3130;41.564;23.280;2023-03-18T05:59:22;99248.88;;;3.77;84.13
6194;BME280;3130;41.564;23.280;2023-03-18T06:01:50;99283.50;;;4.08;83.79
6194;BME280;3130;41.564;23.280;2023-03-18T06:04:17;99225.97;;;3.80;83.45
6194;BME280;3130;41.564;23.280;2023-03-18T06:06:45;99245.03;;;3.93;82.95
6194;BME280;3130;41.564;23.280;2023-03-18T06:09:13;99291.19;;;4.34;83.05
6194;BME280;3130;41.564;23.280;2023-03-18T06:11:40;99273.50;;;4.31;82.62
6194;BME280;3130;41.564;23.280;2023-03-18T06:14:09;99162.81;;;3.73;81.17
6194;BME280;3130;41.564;23.280;2023-03-18T06:16:37;99291.28;;;4.59;81.04
6194;BME280;3130;41.564;23.280;2023-03-18T06:19:04;99291.75;;;4.71;80.78
6194;BME280;3130;41.564;23.280;2023-03-18T06:21:32;99302.84;;;4.94;80.00
6194;BME280;3130;41.564;23.280;2023-03-18T06:24:02;99308.41;;;5.07;79.39
6194;BME280;3130;41.564;23.280;2023-03-18T06:26:30;99253.81;;;4.93;78.75
6194;BME280;3130;41.564;23.280;2023-03-18T06:29:00;99299.03;;;5.35;78.07
6194;BME280;3130;41.564;23.280;2023-03-18T06:31:29;99308.06;;;5.68;77.79
6194;BME280;3130;41.564;23.280;2023-03-18T06:33:56;99294.78;;;5.84;76.74
6194;BME280;3130;41.564;23.280;2023-03-18T06:36:24;99301.38;;;6.12;76.10
6194;BME280;3130;41.564;23.280;2023-03-18T06:38:54;99168.72;;;5.53;75.02
6194;BME280;3130;41.564;23.280;2023-03-18T06:41:22;99282.28;;;6.47;73.99
6194;BME280;3130;41.564;23.280;2023-03-18T06:43:52;99313.22;;;6.81;72.32
6194;BME280;3130;41.564;23.280;2023-03-18T06:46:20;99303.84;;;7.02;71.51
6194;BME280;3130;41.564;23.280;2023-03-18T06:48:50;99155.56;;;6.30;69.78
6194;BME280;3130;41.564;23.280;2023-03-18T06:52:55;99216.97;;;6.87;68.24
6194;BME280;3130;41.564;23.280;2023-03-18T06:55:09;99292.53;;;7.69;66.92
6194;BME280;3130;41.564;23.280;2023-03-18T06:58:03;99241.94;;;7.79;65.40
6194;BME280;3130;41.564;23.280;2023-03-18T07:00:58;99226.38;;;8.75;62.35
6194;BME280;3130;41.564;23.280;2023-03-18T07:03:26;99161.78;;;9.55;57.09
6194;BME280;3130;41.564;23.280;2023-03-18T07:06:06;99293.22;;;11.42;51.62
6194;BME280;3130;41.564;23.280;2023-03-18T07:08:38;99237.03;;;12.35;47.97
6194;BME280;3130;41.564;23.280;2023-03-18T07:11:05;99157.31;;;13.00;44.84
6194;BME280;3130;41.564;23.280;2023-03-18T07:13:33;99295.50;;;14.99;41.27
6194;BME280;3130;41.564;23.280;2023-03-18T07:16:00;99168.31;;;15.18;37.92
6194;BME280;3130;41.564;23.280;2023-03-18T07:18:28;99203.06;;;16.14;35.91
6194;BME280;3130;41.564;23.280;2023-03-18T07:21:14;99191.09;;;16.98;34.59
6194;BME280;3130;41.564;23.280;2023-03-18T07:23:47;99200.56;;;17.60;32.58
6194;BME280;3130;41.564;23.280;2023-03-18T07:26:14;99220.50;;;17.90;31.93
6194;BME280;3130;41.564;23.280;2023-03-18T07:29:04;99162.47;;;18.30;31.26
6194;BME280;3130;41.564;23.280;2023-03-18T07:31:40;99178.53;;;18.92;30.25
6194;BME280;3130;41.564;23.280;2023-03-18T07:34:07;99256.84;;;19.91;28.99
6194;BME280;3130;41.564;23.280;2023-03-18T07:36:36;99284.06;;;20.52;28.42
6194;BME280;3130;41.564;23.280;2023-03-18T07:39:04;99274.50;;;20.79;27.48
6194;BME280;3130;41.564;23.280;2023-03-18T07:41:31;99279.66;;;20.89;27.04
6194;BME280;3130;41.564;23.280;2023-03-18T07:43:58;99284.38;;;20.66;26.65
6194;BME280;3130;41.564;23.280;2023-03-18T07:46:26;99280.84;;;21.12;25.64
6194;BME280;3130;41.564;23.280;2023-03-18T07:48:53;99269.88;;;21.08;25.85
6194;BME280;3130;41.564;23.280;2023-03-18T07:51:20;99238.28;;;21.29;25.91
6194;BME280;3130;41.564;23.280;2023-03-18T07:53:49;99238.09;;;21.65;25.28
6194;BME280;3130;41.564;23.280;2023-03-18T07:56:17;99216.19;;;21.58;25.02
6194;BME280;3130;41.564;23.280;2023-03-18T07:58:45;99233.88;;;21.29;25.25
6194;BME280;3130;41.564;23.280;2023-03-18T08:01:12;99250.03;;;21.93;25.00
6194;BME280;3130;41.564;23.280;2023-03-18T08:03:43;99267.16;;;22.46;24.86
6194;BME280;3130;41.564;23.280;2023-03-18T08:06:11;99265.09;;;22.65;23.77
6194;BME280;3130;41.564;23.280;2023-03-18T08:08:38;99166.56;;;22.17;23.90
6194;BME280;3130;41.564;23.280;2023-03-18T08:11:07;99242.84;;;22.53;23.78
6194;BME280;3130;41.564;23.280;2023-03-18T08:13:35;99246.44;;;22.52;23.80
6194;BME280;3130;41.564;23.280;2023-03-18T08:16:03;99251.84;;;22.59;23.85
6194;BME280;3130;41.564;23.280;2023-03-18T08:18:30;99247.16;;;22.37;24.29
6194;BME280;3130;41.564;23.280;2023-03-18T08:20:57;99190.75;;;21.60;25.00
6194;BME280;3130;41.564;23.280;2023-03-18T08:23:25;99231.13;;;21.56;25.12
6194;BME280;3130;41.564;23.280;2023-03-18T08:25:52;99245.72;;;21.41;25.45
6194;BME280;3130;41.564;23.280;2023-03-18T08:28:21;99225.84;;;20.43;25.92
6194;BME280;3130;41.564;23.280;2023-03-18T08:30:52;99226.81;;;20.06;27.00
6194;BME280;3130;41.564;23.280;2023-03-18T08:33:20;99234.69;;;18.16;28.86
6194;BME280;3130;41.564;23.280;2023-03-18T08:35:47;99229.84;;;17.31;31.26
6194;BME280;3130;41.564;23.280;2023-03-18T08:38:16;99215.19;;;16.47;32.41
6194;BME280;3130;41.564;23.280;2023-03-18T08:40:44;99212.22;;;16.29;33.20
6194;BME280;3130;41.564;23.280;2023-03-18T08:43:12;99218.16;;;16.31;33.28
6194;BME280;3130;41.564;23.280;2023-03-18T08:45:40;99215.81;;;16.07;34.06
6194;BME280;3130;41.564;23.280;2023-03-18T08:48:08;99220.22;;;15.61;33.86
6194;BME280;3130;41.564;23.280;2023-03-18T08:50:35;99220.88;;;15.41;33.88
6194;BME280;3130;41.564;23.280;2023-03-18T08:53:03;99219.44;;;15.26;33.19
6194;BME280;3130;41.564;23.280;2023-03-18T08:55:33;99220.75;;;15.31;34.77
6194;BME280;3130;41.564;23.280;2023-03-18T08:58:02;99211.25;;;15.43;35.04
6194;BME280;3130;41.564;23.280;2023-03-18T09:00:30;99207.41;;;15.14;35.70
6194;BME280;3130;41.564;23.280;2023-03-18T09:02:58;99208.44;;;15.11;35.53
6194;BME280;3130;41.564;23.280;2023-03-18T09:05:26;99214.38;;;14.67;36.28
6194;BME280;3130;41.564;23.280;2023-03-18T09:07:53;99213.78;;;14.63;36.88
6194;BME280;3130;41.564;23.280;2023-03-18T09:10:20;99209.16;;;14.56;36.30
6194;BME280;3130;41.564;23.280;2023-03-18T09:12:47;99202.56;;;14.16;37.30
6194;BME280;3130;41.564;23.280;2023-03-18T09:15:17;99107.28;;;13.54;37.84
6194;BME280;3130;41.564;23.280;2023-03-18T09:17:45;99196.81;;;14.13;36.99
6194;BME280;3130;41.564;23.280;2023-03-18T09:20:15;99192.88;;;13.95;38.59
6194;BME280;3130;41.564;23.280;2023-03-18T09:22:44;99196.69;;;13.89;38.76
6194;BME280;3130;41.564;23.280;2023-03-18T09:25:12;99176.44;;;13.60;38.78
6194;BME280;3130;41.564;23.280;2023-03-18T09:27:39;99196.81;;;13.88;38.12
6194;BME280;3130;41.564;23.280;2023-03-18T09:30:08;99202.66;;;14.14;37.89
6194;BME280;3130;41.564;23.280;2023-03-18T09:32:35;99130.38;;;13.91;37.68
6194;BME280;3130;41.564;23.280;2023-03-18T09:35:03;99198.38;;;14.38;38.40
6194;BME280;3130;41.564;23.280;2023-03-18T09:37:32;99199.25;;;14.50;37.92
6194;BME280;3130;41.564;23.280;2023-03-18T09:39:59;99194.44;;;14.45;37.90
6194;BME280;3130;41.564;23.280;2023-03-18T09:42:39;99116.34;;;13.95;38.47
6194;BME280;3130;41.564;23.280;2023-03-18T09:45:19;99195.94;;;14.24;38.34
6194;BME280;3130;41.564;23.280;2023-03-18T09:47:58;99192.63;;;14.10;38.21
6194;BME280;3130;41.564;23.280;2023-03-18T09:50:40;99189.97;;;14.11;38.27
6194;BME280;3130;41.564;23.280;2023-03-18T09:53:15;99209.38;;;14.17;37.87
6194;BME280;3130;41.564;23.280;2023-03-18T09:55:47;99151.22;;;13.88;37.16
6194;BME280;3130;41.564;23.280;2023-03-18T09:58:20;99173.81;;;13.85;37.35
6194;BME280;3130;41.564;23.280;2023-03-18T10:00:52;99047.34;;;12.90;38.01
6194;BME280;3130;41.564;23.280;2023-03-18T10:03:31;99110.78;;;13.40;38.21
6194;BME280;3130;41.564;23.280;2023-03-18T10:06:05;99196.69;;;14.14;38.49
6194;BME280;3130;41.564;23.280;2023-03-18T10:08:42;99109.50;;;13.71;38.61
6194;BME280;3130;41.564;23.280;2023-03-18T10:11:18;99202.03;;;14.23;38.58
6194;BME280;3130;41.564;23.280;2023-03-18T10:13:54;99194.50;;;14.08;38.77
6194;BME280;3130;41.564;23.280;2023-03-18T10:16:27;99102.44;;;13.49;38.23
6194;BME280;3130;41.564;23.280;2023-03-18T10:18:55;99190.44;;;13.56;39.47
6194;BME280;3130;41.564;23.280;2023-03-18T10:21:31;99171.97;;;13.62;39.67
6194;BME280;3130;41.564;23.280;2023-03-18T10:24:11;99147.75;;;13.77;39.22
6194;BME280;3130;41.564;23.280;2023-03-18T10:26:46;99176.44;;;14.20;38.19
6194;BME280;3130;41.564;23.280;2023-03-18T10:29:28;99180.72;;;14.32;37.08
6194;BME280;3130;41.564;23.280;2023-03-18T10:32:07;99075.69;;;13.63;37.15
6194;BME280;3130;41.564;23.280;2023-03-18T10:34:48;99016.84;;;13.21;37.69
6194;BME280;3130;41.564;23.280;2023-03-18T10:37:22;99166.84;;;14.10;38.07
6194;BME280;3130;41.564;23.280;2023-03-18T10:39:54;99073.97;;;13.51;37.76
6194;BME280;3130;41.564;23.280;2023-03-18T10:42:25;99178.00;;;14.23;37.48
6194;BME280;3130;41.564;23.280;2023-03-18T10:45:15;99005.97;;;13.17;37.91
6194;BME280;3130;41.564;23.280;2023-03-18T10:47:58;99113.94;;;14.05;37.23
6194;BME280;3130;41.564;23.280;2023-03-18T10:50:35;99090.47;;;13.97;37.80
6194;BME280;3130;41.564;23.280;2023-03-18T10:53:19;99002.97;;;13.47;37.42
6194;BME280;3130;41.564;23.280;2023-03-18T10:56:09;99062.75;;;13.88;37.18
6194;BME280;3130;41.564;23.280;2023-03-18T10:58:36;99159.75;;;14.49;37.59
6194;BME280;3130;41.564;23.280;2023-03-18T11:01:05;99160.84;;;14.58;37.52
6194;BME280;3130;41.564;23.280;2023-03-18T11:03:35;99160.13;;;14.56;37.98
6194;BME280;3130;41.564;23.280;2023-03-18T11:06:03;99108.38;;;13.62;38.67
6194;BME280;3130;41.564;23.280;2023-03-18T11:08:34;99107.13;;;13.68;38.92
6194;BME280;3130;41.564;23.280;2023-03-18T11:11:21;99141.09;;;13.98;39.02
6194;BME280;3130;41.564;23.280;2023-03-18T11:13:50;99067.66;;;13.67;38.36
6194;BME280;3130;41.564;23.280;2023-03-18T11:16:25;99162.47;;;14.35;38.29
6194;BME280;3130;41.564;23.280;2023-03-18T11:18:55;99154.63;;;14.37;37.99
6194;BME280;3130;41.564;23.280;2023-03-18T11:21:23;99158.84;;;14.38;38.59
6194;BME280;3130;41.564;23.280;2023-03-18T11:24:00;99156.44;;;14.47;37.93
6194;BME280;3130;41.564;23.280;2023-03-18T11:26:52;99148.78;;;14.69;37.72
6194;BME280;3130;41.564;23.280;2023-03-18T11:29:21;99119.13;;;14.75;37.06
6194;BME280;3130;41.564;23.280;2023-03-18T11:31:54;99137.78;;;14.78;37.20
6194;BME280;3130;41.564;23.280;2023-03-18T11:34:23;99134.47;;;14.65;37.90
6194;BME280;3130;41.564;23.280;2023-03-18T11:36:56;99126.78;;;14.87;37.23
6194;BME280;3130;41.564;23.280;2023-03-18T11:39:28;99020.56;;;14.35;36.77
6194;BME280;3130;41.564;23.280;2023-03-18T11:41:58;99036.59;;;14.05;37.67
6194;BME280;3130;41.564;23.280;2023-03-18T11:44:31;99119.41;;;14.59;37.34
6194;BME280;3130;41.564;23.280;2023-03-18T11:47:04;99115.91;;;15.06;36.72
6194;BME280;3130;41.564;23.280;2023-03-18T11:49:33;99096.91;;;15.07;35.62
6194;BME280;3130;41.564;23.280;2023-03-18T11:52:09;99123.22;;;15.22;35.69
6194;BME280;3130;41.564;23.280;2023-03-18T11:55:00;99044.75;;;14.91;35.54
6194;BME280;3130;41.564;23.280;2023-03-18T11:57:38;99099.56;;;15.61;35.31
6194;BME280;3130;41.564;23.280;2023-03-18T12:00:27;99087.56;;;15.71;34.98
6194;BME280;3130;41.564;23.280;2023-03-18T12:06:04;99109.81;;;16.58;33.78
6194;BME280;3130;41.564;23.280;2023-03-18T12:08:46;99056.28;;;16.16;33.50
6194;BME280;3130;41.564;23.280;2023-03-18T12:11:33;99033.00;;;15.74;34.45
6194;BME280;3130;41.564;23.280;2023-03-18T12:14:14;99037.94;;;15.66;34.76
6194;BME280;3130;41.564;23.280;2023-03-18T12:16:53;99067.19;;;15.89;34.53
6194;BME280;3130;41.564;23.280;2023-03-18T12:19:45;99106.94;;;15.55;35.08
6194;BME280;3130;41.564;23.280;2023-03-18T12:22:31;99092.03;;;15.36;35.81
6194;BME280;3130;41.564;23.280;2023-03-18T12:25:23;99052.06;;;15.08;35.44
6194;BME280;3130;41.564;23.280;2023-03-18T12:28:02;99063.50;;;14.82;36.77
6194;BME280;3130;41.564;23.280;2023-03-18T12:33:41;99090.47;;;14.67;37.23
6194;BME280;3130;41.564;23.280;2023-03-18T12:36:18;99111.53;;;14.84;36.45
6194;BME280;3130;41.564;23.280;2023-03-18T12:39:15;99114.91;;;14.74;37.40
6194;BME280;3130;41.564;23.280;2023-03-18T12:41:53;99110.31;;;14.66;37.80
6194;BME280;3130;41.564;23.280;2023-03-18T12:44:52;99089.28;;;14.36;37.76
6194;BME280;3130;41.564;23.280;2023-03-18T12:47:27;99101.06;;;14.05;38.58
6194;BME280;3130;41.564;23.280;2023-03-18T12:49:59;99108.34;;;13.87;38.41
6194;BME280;3130;41.564;23.280;2023-03-18T12:52:32;99105.97;;;13.84;38.30
6194;BME280;3130;41.564;23.280;2023-03-18T12:55:05;99104.91;;;13.51;38.79
6194;BME280;3130;41.564;23.280;2023-03-18T12:57:41;99116.09;;;13.75;39.07
6194;BME280;3130;41.564;23.280;2023-03-18T13:00:18;99113.19;;;13.79;39.35
6194;BME280;3130;41.564;23.280;2023-03-18T13:02:53;99111.94;;;13.85;38.76
6194;BME280;3130;41.564;23.280;2023-03-18T13:05:29;99121.47;;;13.59;39.44
6194;BME280;3130;41.564;23.280;2023-03-18T13:08:17;99122.00;;;13.64;39.70
6194;BME280;3130;41.564;23.280;2023-03-18T13:10:54;99058.66;;;13.24;40.06
6194;BME280;3130;41.564;23.280;2023-03-18T13:13:24;99124.97;;;13.58;39.66
6194;BME280;3130;41.564;23.280;2023-03-18T13:15:53;99119.63;;;13.61;39.95
6194;BME280;3130;41.564;23.280;2023-03-18T13:18:27;99125.47;;;13.76;40.15
6194;BME280;3130;41.564;23.280;2023-03-18T13:20:58;99113.31;;;13.78;40.00
6194;BME280;3130;41.564;23.280;2023-03-18T13:23:40;99100.91;;;13.83;39.33
6194;BME280;3130;41.564;23.280;2023-03-18T13:26:20;99114.59;;;13.96;39.60
6194;BME280;3130;41.564;23.280;2023-03-18T13:28:58;99121.09;;;14.01;40.20
6194;BME280;3130;41.564;23.280;2023-03-18T13:31:37;99120.75;;;14.06;39.68
6194;BME280;3130;41.564;23.280;2023-03-18T13:37:20;99126.91;;;13.80;38.65
6194;BME280;3130;41.564;23.280;2023-03-18T13:40:02;99123.47;;;13.43;39.62
6194;BME280;3130;41.564;23.280;2023-03-18T13:42:35;99017.31;;;12.90;39.23
6194;BME280;3130;41.564;23.280;2023-03-18T13:45:10;99108.19;;;13.53;39.85
6194;BME280;3130;41.564;23.280;2023-03-18T13:47:41;99093.53;;;13.53;39.30